Last 24 Hour KALB Observations

Last 24 hours of surface weather observations from the Albany County Airport. Observations taken by the National Weather Service.


		
KALB 202351Z 28019G24KT 10SM FEW037 FEW055 M07/M13 A3003 RMK AO2 SLP173 60000
 T10671133 11011 21072 51014=
KALB 210051Z 28012KT 10SM FEW037 FEW055 M08/M13 A3002 RMK AO2 SLP171 T10781133=
KALB 210151Z 00000KT 10SM FEW037 FEW260 M08/M13 A3002 RMK AO2 SLP170 T10831133=
KALB 210251Z 30004KT 10SM SCT260 M09/M13 A3001 RMK AO2 SLP167 T10891133 58005=
KALB 210351Z 27005KT 10SM FEW037 BKN260 M09/M13 A3001 RMK AO2 SLP168 T10941133=
KALB 210451Z 00000KT 10SM FEW037 BKN260 M09/M13 A3002 RMK AO2 SLP170 T10941133
 410111100=
KALB 210551Z 00000KT 10SM SCT043 BKN260 M09/M13 A3001 RMK AO2 SLP165 T10891133
 11067 21100 58003=
KALB 210651Z 10004KT 10SM FEW043 SCT140 BKN260 M09/M13 A2996 RMK AO2 SLP151
 T10891128=
KALB 210751Z 12004KT 10SM FEW043 SCT140 BKN260 M09/M13 A2994 RMK AO2 SLP141
 T10891128=
KALB 210851Z 16005KT 10SM OVC042 M09/M12 A2990 RMK AO2 SLP130 T10891122 56034=
KALB 210951Z 15005KT 10SM FEW042 SCT180 SCT260 M09/M13 A2986 RMK AO2 SLP117
 T10941128=
KALB 211051Z 15005KT 10SM FEW042 BKN210 M09/M12 A2982 RMK AO2 SLP103 T10891122=
KALB 211151Z VRB04KT 10SM FEW040 OVC150 M08/M12 A2979 RMK AO2 SLP093 BINOVC
 70002 T10831122 11083 21100 56038=
KALB 211251Z 17013G19KT 10SM FEW040 BKN100 M08/M12 A2975 RMK AO2 SLP079
 T10781117=
KALB 211351Z 16012G18KT 2SM -SN BKN042 BKN065 OVC100 M07/M11 A2973 RMK AO2
 SNB21 SLP072 P0000 T10721111=
KALB 211404Z 16010KT 1SM R01/P6000FT -SN FEW020 BKN028 OVC039 M07/M11 A2973 RMK
 AO2 P0000 T10721106=
KALB 211404Z 16010KT 1SM R01/P6000FT -SN FEW020 BKN028 OVC039 M07/M11 A2973=
KALB 211442Z 16008KT 1/2SM R01/2600V4500FT SN FZFG VV011 M08/M08 A2973 RMK AO2
 TWR VIS 1 P0001 T10781083=
KALB 211442Z 16008KT 1/2SM R01/2600V4500FT SN FZFG VV011 M08/M08 A2973=
KALB 211451Z 16012KT 1/2SM R01/4000V5000FT SN FZFG VV010 M08/M08 A2972 RMK AO2
 TWR VIS 1 SLP070 SNINCR 1/1 P0002 60002 T10781083 56023=
KALB 211502Z 16009KT 1/2SM R01/4500V6000FT SN FZFG VV016 M08/M08 A2972 RMK AO2
 TWR VIS 1 P0000 T10781083=
KALB 211502Z 16009KT 1/2SM R01/4500V6000FT SN FZFG VV016 M08/M08 A2972=
KALB 211540Z 16010KT 1SM R01/P6000FT -SN BR BKN023 OVC045 M07/M08 A2969=
KALB 211540Z 16010KT 1SM R01/P6000FT -SN BR BKN023 OVC045 M07/M08 A2969 RMK AO2
 P0000 T10671083=
KALB 211549Z 16010KT 3SM -SN BR SCT021 OVC044 M07/M08 A2969 RMK AO2 TWR VIS 5
 P0000=
KALB 211549Z 16010KT 3SM -SN BR SCT021 OVC044 M07/M08 A2969=
KALB 211551Z 16010KT 5SM -SN BR FEW021 OVC044 M07/M08 A2969 RMK AO2 SLP060 PCPN
 VRY LGT P0000 T10671083=
KALB 211551Z COR 16010KT 5SM -SN BR SCT021 OVC044 M07/M08 A2969 RMK AO2 SLP060
 PCPN VRY LGT P0000 T10671083=
KALB 211651Z 16008G17KT 10SM -SN FEW025 OVC041 M06/M09 A2965 RMK AO2 SLP046
 PCPN VRY LGT P0000 T10561089=
KALB 211751Z 15008KT 10SM -SN OVC040 M04/M08 A2962 RMK AO2 SLP035 PCPN VRY LGT
 P0000 60002 T10441083 11044 21083 58035=
KALB 211851Z 16005KT 10SM FEW040 BKN049 OVC060 M04/M08 A2960 RMK AO2 SNE05
 SLP026 PRESENT WX VCSH P0000 T10391083=
KALB 211951Z 16009KT 10SM BKN044 OVC060 M03/M08 A2959 RMK AO2 SLP022 PRESENT WX
 VCSH T10281078=
KALB 212051Z 16005KT 10SM BKN044 OVC060 M02/M07 A2958 RMK AO2 SLP022 OCNL
 BINOVC 60000 T10221072 56013=
KALB 212151Z 16006KT 10SM BKN045 OVC060 M02/M07 A2959 RMK AO2 SLP022 OCNL
 BINOVC T10221072=
KALB 212251Z 16006KT 10SM SCT045 OVC060 M02/M07 A2958 RMK AO2 SNB46E49 SLP022
 VCSH E OCNL BINOVC P0000 T10171067=
KALB 212351Z 16006KT 10SM FEW045 SCT050 OVC070 M02/M07 A2959 RMK AO2 SLP022
 4/001 60000 T10171067 11011 21044 51001=